Weather at Annecy-Haute-Savoie-Mont Blanc Airport

Public forecast

Using degrees Celsius for public forecast. Weather courtesy of forecast.io.

Current aviation weather report (METAR) for Annecy-Haute-Savoie-Mont Blanc Airport

Retrieved 2022/07/01 04:30 UTC (8 minutes ago):

LFLP 010430Z AUTO VRB04KT 9999 -RADZ FEW016 SCT032 BKN043 14/13 Q1019 TEMPO 3000 BR BKN005

Aviation forecast (TAF) for Annecy-Haute-Savoie-Mont Blanc Airport

Retrieved 2022-07-01 03:00 UTC (2 hours ago):

TAF LFLP 010200Z 0103/0203 VRB05KT 9999 SCT040 TEMPO 0103/0105 RA FEW045TCU BKN050 PROB40 TEMPO 0104/0109 3000 BR BKN005 BECMG 0110/0112 30008KT CAVOK BECMG 0118/0120 VRB02KT